Time;durP1;ratioP1;P1;durP2;ratioP2;P2;SDS_P1;SDS_P2;PMS_P1;PMS_P2;Temp;Humidity;BMP_temperature;BMP_pressure;BME280_temperature;BME280_humidity;BME280_pressure;Samples;Min_cycle;Max_cycle;Signal;HPM_P1;HPM_P2
2021/09/06 00:01:39;;;;;;;10.82;7.10;;;409.70;2355.20;;;;;;5013297;28;20026;-84
2021/09/06 00:04:05;;;;;;;11.32;6.85;;;409.60;2355.20;;;;;;5013827;28;20025;-85
2021/09/06 00:06:31;;;;;;;13.60;7.95;;;409.60;2355.20;;;;;;5012155;28;20133;-82
2021/09/06 00:08:57;;;;;;;13.00;6.57;;;409.70;2355.20;;;;;;5012219;28;20058;-84
2021/09/06 00:11:23;;;;;;;13.00;6.57;;;384.80;2329.60;;;;;;5013310;28;20026;-85
2021/09/06 00:13:51;;;;;;;10.73;6.53;;;384.80;2329.60;;;;;;5012822;28;20026;-85
2021/09/06 00:16:18;;;;;;;14.20;6.28;;;384.80;2329.60;;;;;;5013498;28;20040;-84
2021/09/06 00:18:44;;;;;;;9.40;6.78;;;384.80;2329.60;;;;;;5011619;28;20394;-85
2021/09/06 00:21:10;;;;;;;9.45;6.82;;;384.80;2329.60;;;;;;5011671;28;20030;-85
2021/09/06 00:23:36;;;;;;;9.30;6.00;;;384.90;2329.60;;;;;;5012616;28;20053;-81
2021/09/06 00:26:03;;;;;;;12.43;7.30;;;384.80;2329.60;;;;;;5013492;28;20469;-82
2021/09/06 00:28:29;;;;;;;12.52;6.18;;;384.80;2329.60;;;;;;5013331;28;20079;-83
2021/09/06 00:30:56;;;;;;;10.68;6.93;;;384.70;2329.60;;;;;;5013474;28;20030;-83
2021/09/06 00:33:22;;;;;;;12.32;6.82;;;384.30;2329.60;;;;;;5011326;28;20030;-83
2021/09/06 00:35:48;;;;;;;14.18;6.35;;;384.40;2329.60;;;;;;5011608;28;20029;-83
2021/09/06 00:38:22;;;;;;;9.57;6.13;;;384.60;2329.60;;;;;;5014297;28;20025;-83
2021/09/06 00:40:48;;;;;;;13.25;6.57;;;384.60;2329.60;;;;;;5013035;28;20415;-83
2021/09/06 00:43:15;;;;;;;12.02;7.40;;;384.60;2329.60;;;;;;5013340;28;20026;-83
2021/09/06 00:45:41;;;;;;;14.95;6.85;;;409.60;2355.20;;;;;;5013243;28;20060;-84
2021/09/06 00:48:08;;;;;;;10.57;6.43;;;384.30;2329.60;;;;;;5013023;28;20072;-83
2021/09/06 00:50:35;;;;;;;14.35;7.28;;;384.40;2329.60;;;;;;5013130;28;20026;-83
2021/09/06 00:53:02;;;;;;;8.15;5.55;;;384.30;2329.60;;;;;;5014246;28;20030;-83
2021/09/06 00:55:29;;;;;;;9.00;6.43;;;384.60;2329.60;;;;;;5012679;28;20129;-84
2021/09/06 00:57:55;;;;;;;11.82;6.82;;;384.70;2329.60;;;;;;5013089;28;20450;-84
2021/09/06 01:00:21;;;;;;;13.10;6.32;;;384.60;2329.60;;;;;;5013198;28;20195;-84
2021/09/06 01:02:47;;;;;;;8.10;5.60;;;384.80;2329.60;;;;;;5013359;28;20164;-84
2021/09/06 01:05:14;;;;;;;12.60;5.95;;;384.90;2329.60;;;;;;5012965;28;20076;-83
2021/09/06 01:07:41;;;;;;;12.23;6.50;;;409.90;2355.20;;;;;;5018948;28;20030;-83
2021/09/06 01:10:10;;;;;;;10.55;6.30;;;409.60;2355.20;;;;;;5020056;28;20026;-83
2021/09/06 01:12:37;;;;;;;9.05;6.53;;;409.60;2355.20;;;;;;5017801;28;20482;-83
2021/09/06 01:15:05;;;;;;;11.45;6.15;;;409.60;2355.20;;;;;;5012575;28;20060;-83
2021/09/06 01:17:31;;;;;;;10.93;6.20;;;409.60;2355.20;;;;;;5012790;28;20026;-83
2021/09/06 01:19:57;;;;;;;14.90;6.40;;;384.70;2329.60;;;;;;5012658;28;20022;-83
2021/09/06 01:22:23;;;;;;;11.35;7.13;;;384.50;2329.60;;;;;;5012657;28;20037;-83
2021/09/06 01:24:52;;;;;;;13.60;6.90;;;384.20;2329.60;;;;;;5012993;28;20026;-83
2021/09/06 01:27:21;;;;;;;13.77;6.82;;;384.00;2329.60;;;;;;5012665;28;20033;-83
2021/09/06 01:29:47;;;;;;;13.80;7.47;;;384.20;2329.60;;;;;;5012120;28;20057;-83
2021/09/06 01:32:16;;;;;;;14.75;7.47;;;384.00;2329.60;;;;;;5012300;28;20438;-84
2021/09/06 01:34:42;;;;;;;12.07;7.30;;;359.30;2329.60;;;;;;5012324;28;20069;-83
2021/09/06 01:37:08;;;;;;;13.57;7.25;;;384.20;2329.60;;;;;;5012183;28;20091;-83
2021/09/06 01:39:34;;;;;;;13.20;6.70;;;384.30;2329.60;;;;;;5012438;28;20433;-85
2021/09/06 01:42:00;;;;;;;14.23;7.78;;;384.40;2329.60;;;;;;5012285;28;20030;-84
2021/09/06 01:44:27;;;;;;;15.00;7.00;;;384.00;2329.60;;;;;;5012222;28;20064;-86
2021/09/06 01:46:58;;;;;;;11.88;7.25;;;384.30;2329.60;;;;;;5012469;28;20021;-85
2021/09/06 01:49:27;;;;;;;14.67;7.23;;;384.20;2329.60;;;;;;5012554;28;20477;-83
2021/09/06 01:51:54;;;;;;;12.30;6.53;;;359.30;2329.60;;;;;;5012098;28;20026;-82
2021/09/06 01:54:22;;;;;;;11.45;7.32;;;359.00;2329.60;;;;;;5012411;28;20030;-84
2021/09/06 01:56:48;;;;;;;11.80;7.40;;;359.30;2329.60;;;;;;5012215;28;20025;-81
2021/09/06 01:59:17;;;;;;;13.93;7.80;;;384.00;2329.60;;;;;;5012244;28;20052;-83
2021/09/06 02:01:43;;;;;;;13.35;7.95;;;359.30;2329.60;;;;;;5012349;28;20477;-83
2021/09/06 02:04:09;;;;;;;18.20;7.85;;;359.10;2329.60;;;;;;5012222;28;20125;-84
2021/09/06 02:06:35;;;;;;;10.60;7.03;;;359.30;2329.60;;;;;;5012396;28;20517;-83
2021/09/06 02:09:01;;;;;;;12.63;7.00;;;384.00;2329.60;;;;;;5012406;28;20032;-83
2021/09/06 02:11:27;;;;;;;14.80;6.70;;;384.30;2329.60;;;;;;5012117;28;20029;-84
2021/09/06 02:13:53;;;;;;;10.63;6.65;;;359.30;2329.60;;;;;;5012434;28;20028;-82
2021/09/06 02:16:19;;;;;;;11.38;6.95;;;384.00;2329.60;;;;;;5012141;28;20034;-83
2021/09/06 02:18:45;;;;;;;10.55;7.03;;;384.00;2329.60;;;;;;5011732;28;20041;-84
2021/09/06 02:21:11;;;;;;;11.82;7.03;;;359.30;2329.60;;;;;;5044441;28;20030;-84
2021/09/06 02:23:37;;;;;;;11.30;6.38;;;384.00;2329.60;;;;;;5011344;28;20029;-83
2021/09/06 02:26:03;;;;;;;10.77;6.55;;;384.00;2329.60;;;;;;5011409;28;20025;-84
2021/09/06 02:28:32;;;;;;;12.13;6.80;;;384.00;2329.60;;;;;;5011934;28;20493;-84
2021/09/06 02:31:01;;;;;;;11.13;6.70;;;359.30;2329.60;;;;;;5012186;28;20046;-84
2021/09/06 02:33:29;;;;;;;9.63;5.72;;;359.30;2329.60;;;;;;5012001;28;20461;-83
2021/09/06 02:35:55;;;;;;;9.70;6.13;;;359.20;2329.60;;;;;;5014894;28;20072;-83
2021/09/06 02:38:22;;;;;;;11.75;6.90;;;384.00;2329.60;;;;;;5015098;28;20115;-85
2021/09/06 02:40:48;;;;;;;13.85;6.95;;;359.20;2329.60;;;;;;5014520;28;20036;-85
2021/09/06 02:43:14;;;;;;;9.07;6.63;;;359.20;2329.60;;;;;;5015225;28;20034;-84
2021/09/06 02:45:40;;;;;;;13.00;6.60;;;359.30;2329.60;;;;;;5015011;28;20040;-83
2021/09/06 02:48:06;;;;;;;11.57;6.75;;;359.10;2329.60;;;;;;5016599;28;20057;-83
2021/09/06 02:50:32;;;;;;;12.73;6.72;;;359.30;2329.60;;;;;;5031021;28;20414;-83
2021/09/06 02:52:58;;;;;;;12.68;6.55;;;359.10;2329.60;;;;;;5030069;28;20535;-81
2021/09/06 02:55:24;;;;;;;11.70;5.68;;;359.10;2329.60;;;;;;5031976;28;20045;-83
2021/09/06 02:57:51;;;;;;;9.48;6.68;;;358.60;2329.60;;;;;;5030985;28;20030;-84
2021/09/06 03:00:17;;;;;;;10.68;6.07;;;358.40;2329.60;;;;;;5033800;28;20029;-81
2021/09/06 03:02:44;;;;;;;10.18;6.28;;;358.80;2329.60;;;;;;5033112;28;20065;-81
2021/09/06 03:05:14;;;;;;;13.05;7.28;;;358.50;2329.60;;;;;;5020271;28;20034;-84
2021/09/06 03:07:40;;;;;;;9.90;6.00;;;333.70;2329.60;;;;;;5014897;28;20079;-84
2021/09/06 03:10:07;;;;;;;12.50;6.65;;;358.50;2329.60;;;;;;5015115;28;20022;-84
2021/09/06 03:12:33;;;;;;;12.05;7.18;;;358.60;2329.60;;;;;;5015030;28;20053;-84
2021/09/06 03:14:59;;;;;;;11.95;6.25;;;358.70;2329.60;;;;;;5015538;28;20065;-85
2021/09/06 03:17:25;;;;;;;17.15;8.95;;;358.60;2329.60;;;;;;5014943;28;20358;-84
2021/09/06 03:19:51;;;;;;;14.02;8.57;;;358.40;2329.60;;;;;;5015139;28;20022;-84
2021/09/06 03:22:18;;;;;;;10.82;7.22;;;358.70;2329.60;;;;;;5014467;28;20036;-84
2021/09/06 03:24:46;;;;;;;14.35;7.50;;;358.60;2329.60;;;;;;5014849;28;20055;-83
2021/09/06 03:27:14;;;;;;;10.38;6.93;;;358.60;2329.60;;;;;;5014795;28;20113;-84
2021/09/06 03:29:42;;;;;;;12.60;7.47;;;358.60;2329.60;;;;;;5014119;28;20104;-84
2021/09/06 03:32:08;;;;;;;10.98;6.20;;;358.50;2329.60;;;;;;5014738;28;20022;-83
2021/09/06 03:34:36;;;;;;;13.85;6.70;;;358.40;2329.60;;;;;;4998633;28;20494;-84
2021/09/06 03:37:04;;;;;;;10.75;6.63;;;333.60;2329.60;;;;;;5014183;28;20061;-84
2021/09/06 03:39:31;;;;;;;13.07;6.93;;;358.50;2329.60;;;;;;5014226;28;20033;-85
2021/09/06 03:41:57;;;;;;;13.15;6.60;;;333.70;2329.60;;;;;;5013885;28;20038;-84
2021/09/06 03:44:26;;;;;;;11.43;6.80;;;358.40;2329.60;;;;;;5014085;28;20034;-84
2021/09/06 03:46:52;;;;;;;14.65;6.53;;;358.50;2329.60;;;;;;5013372;28;20026;-82
2021/09/06 03:49:21;;;;;;;13.30;7.47;;;358.50;2329.60;;;;;;5013821;28;20026;-84
2021/09/06 03:51:47;;;;;;;13.70;8.02;;;333.70;2329.60;;;;;;5014469;28;20029;-84
2021/09/06 03:54:14;;;;;;;10.00;7.85;;;358.60;2329.60;;;;;;5014269;28;20087;-83
2021/09/06 03:56:40;;;;;;;10.20;7.15;;;333.50;2329.60;;;;;;5013706;28;20512;-85
2021/09/06 03:59:06;;;;;;;13.55;7.85;;;333.60;2329.60;;;;;;5015105;28;20085;-85
2021/09/06 04:01:32;;;;;;;11.30;7.43;;;333.40;2329.60;;;;;;5014125;28;20035;-85
2021/09/06 04:03:58;;;;;;;14.40;7.60;;;333.40;2329.60;;;;;;5047675;28;20033;-84
2021/09/06 04:06:24;;;;;;;14.18;7.00;;;333.60;2329.60;;;;;;5014145;28;20470;-85
2021/09/06 04:09:03;;;;;;;12.68;6.65;;;333.60;2329.60;;;;;;4997539;28;20036;-85
2021/09/06 04:11:29;;;;;;;11.88;7.10;;;333.60;2329.60;;;;;;4997899;28;20121;-85
2021/09/06 04:13:55;;;;;;;13.57;6.30;;;333.20;2329.60;;;;;;5013587;28;20033;-84
2021/09/06 04:16:21;;;;;;;10.70;7.00;;;333.20;2329.60;;;;;;5013508;28;20026;-84
2021/09/06 04:18:47;;;;;;;12.50;6.78;;;333.20;2329.60;;;;;;5013201;28;20029;-82
2021/09/06 04:21:13;;;;;;;15.65;7.13;;;333.40;2329.60;;;;;;5013639;28;20088;-82
2021/09/06 04:23:39;;;;;;;12.73;6.97;;;333.30;2329.60;;;;;;4997073;28;20029;-81
2021/09/06 04:26:06;;;;;;;11.93;7.75;;;333.30;2329.60;;;;;;5012911;28;20025;-82
2021/09/06 04:28:32;;;;;;;12.13;6.85;;;333.50;2329.60;;;;;;5013058;28;20022;-82
2021/09/06 04:30:58;;;;;;;15.07;6.97;;;333.60;2329.60;;;;;;5013080;28;20509;-81
2021/09/06 04:33:24;;;;;;;13.85;7.22;;;333.30;2329.60;;;;;;5014708;28;20030;-84
2021/09/06 04:35:52;;;;;;;14.82;7.07;;;333.00;2329.60;;;;;;5013212;28;20029;-81
2021/09/06 04:38:18;;;;;;;13.63;8.13;;;333.30;2329.60;;;;;;5012970;28;20022;-82
2021/09/06 04:40:47;;;;;;;13.75;7.70;;;333.20;2329.60;;;;;;5013658;28;20053;-83
2021/09/06 04:43:13;;;;;;;13.18;6.35;;;333.40;2329.60;;;;;;5013229;28;20037;-79
2021/09/06 04:45:40;;;;;;;14.27;7.82;;;333.40;2329.60;;;;;;5013043;28;20033;-82
2021/09/06 04:48:06;;;;;;;16.35;6.75;;;333.00;2329.60;;;;;;5013377;28;20099;-83
2021/09/06 04:50:35;;;;;;;12.30;6.38;;;308.00;2304.00;;;;;;5013270;28;20030;-80
2021/09/06 04:53:02;;;;;;;14.80;7.22;;;308.10;2304.00;;;;;;5045713;28;20021;-81
2021/09/06 04:55:28;;;;;;;11.70;6.82;;;333.20;2329.60;;;;;;5012802;28;20030;-83
2021/09/06 04:57:54;;;;;;;12.35;6.95;;;308.10;2304.00;;;;;;5012862;28;20026;-84
2021/09/06 05:00:22;;;;;;;16.75;7.07;;;308.00;2304.00;;;;;;5013227;28;20041;-83
2021/09/06 05:02:48;;;;;;;12.60;8.00;;;307.90;2304.00;;;;;;5013299;28;20068;-83
2021/09/06 05:05:14;;;;;;;17.20;7.93;;;307.90;2304.00;;;;;;5014782;28;20033;-82
2021/09/06 05:07:40;;;;;;;16.23;7.85;;;308.10;2304.00;;;;;;5013073;28;20030;-81
2021/09/06 05:10:07;;;;;;;15.85;7.80;;;308.10;2304.00;;;;;;5013416;28;20125;-82
2021/09/06 05:12:33;;;;;;;12.38;7.05;;;308.00;2304.00;;;;;;5013268;28;20112;-84
2021/09/06 05:14:59;;;;;;;21.75;8.57;;;333.00;2329.60;;;;;;5013404;28;20061;-82
2021/09/06 05:17:26;;;;;;;12.50;7.50;;;308.00;2304.00;;;;;;5013315;28;20091;-83
2021/09/06 05:20:02;;;;;;;12.95;7.28;;;332.90;2329.60;;;;;;5013234;28;20022;-82
2021/09/06 05:22:29;;;;;;;17.90;7.32;;;333.00;2329.60;;;;;;5014901;28;20026;-81
2021/09/06 05:24:57;;;;;;;15.30;7.85;;;333.40;2329.60;;;;;;5020024;28;20022;-81
2021/09/06 05:27:24;;;;;;;16.00;8.73;;;333.40;2329.60;;;;;;5019914;28;20041;-82
2021/09/06 05:29:50;;;;;;;17.75;8.45;;;333.40;2329.60;;;;;;5014971;28;20042;-83
2021/09/06 05:32:16;;;;;;;17.58;9.25;;;333.40;2329.60;;;;;;5047121;28;20026;-83
2021/09/06 05:34:46;;;;;;;16.25;8.60;;;333.20;2329.60;;;;;;5013119;28;20028;-80
2021/09/06 05:37:12;;;;;;;17.13;8.07;;;333.20;2329.60;;;;;;5013800;28;20092;-84
2021/09/06 05:39:44;;;;;;;15.93;8.30;;;333.20;2329.60;;;;;;5013626;28;20478;-83
2021/09/06 05:42:10;;;;;;;17.25;7.68;;;333.20;2329.60;;;;;;5020076;28;20061;-82
2021/09/06 05:44:42;;;;;;;13.18;7.80;;;333.20;2329.60;;;;;;5032724;28;20033;-83
2021/09/06 05:47:11;;;;;;;16.17;8.57;;;333.20;2329.60;;;;;;5037008;28;20033;-80
2021/09/06 05:49:57;;;;;;;12.98;6.75;;;333.70;2329.60;;;;;;5037027;28;20014;-78
2021/09/06 05:52:23;;;;;;;16.65;7.50;;;333.60;2329.60;;;;;;5021721;28;20030;-82
2021/09/06 05:54:49;;;;;;;14.45;7.20;;;333.70;2329.60;;;;;;5034400;28;20037;-80
2021/09/06 05:57:28;;;;;;;20.77;8.95;;;358.60;2329.60;;;;;;5034316;28;20045;-80
2021/09/06 05:59:54;;;;;;;12.55;7.38;;;358.70;2329.60;;;;;;5035636;28;20026;-79
2021/09/06 06:02:20;;;;;;;11.95;6.63;;;358.90;2329.60;;;;;;5034069;28;20026;-78
2021/09/06 06:04:46;;;;;;;18.52;8.95;;;358.90;2329.60;;;;;;5034593;28;20034;-77
2021/09/06 06:07:15;;;;;;;15.55;7.80;;;359.10;2329.60;;;;;;5017007;28;20034;-80
2021/09/06 06:09:41;;;;;;;15.77;8.20;;;359.30;2329.60;;;;;;5036513;28;20112;-79
2021/09/06 06:12:10;;;;;;;18.52;9.40;;;359.30;2329.60;;;;;;5037503;28;20033;-78
2021/09/06 06:14:36;;;;;;;12.15;8.32;;;384.10;2329.60;;;;;;5037241;28;20049;-80
2021/09/06 06:17:02;;;;;;;12.07;7.45;;;384.10;2329.60;;;;;;5032860;28;20029;-82
2021/09/06 06:19:29;;;;;;;13.13;7.22;;;384.30;2329.60;;;;;;5015679;28;20022;-81
2021/09/06 06:21:54;;;;;;;11.52;7.05;;;384.30;2329.60;;;;;;5015521;28;20359;-81
2021/09/06 06:24:20;;;;;;;14.30;6.75;;;384.50;2329.60;;;;;;5015779;28;20036;-81
2021/09/06 06:26:46;;;;;;;11.88;6.75;;;384.60;2329.60;;;;;;5018907;28;20034;-81
2021/09/06 06:29:12;;;;;;;12.68;7.03;;;384.80;2329.60;;;;;;5025318;28;20045;-81
2021/09/06 06:31:38;;;;;;;18.92;7.82;;;409.60;2355.20;;;;;;5015640;28;20033;-81
2021/09/06 06:34:04;;;;;;;21.50;10.88;;;409.70;2355.20;;;;;;5015219;28;20459;-81
2021/09/06 06:36:29;;;;;;;23.65;12.68;;;409.90;2355.20;;;;;;5015119;28;20037;-82
2021/09/06 06:38:55;;;;;;;15.68;10.02;;;410.20;2355.20;;;;;;5016512;28;20033;-80
2021/09/06 06:41:21;;;;;;;16.30;7.97;;;410.50;2355.20;;;;;;5015847;28;20036;-82
2021/09/06 06:43:47;;;;;;;11.60;7.35;;;435.20;2355.20;;;;;;5015431;28;20449;-81
2021/09/06 06:46:14;;;;;;;20.33;8.88;;;435.30;2355.20;;;;;;5020595;28;20025;-81
2021/09/06 06:48:40;;;;;;;16.90;9.95;;;435.40;2355.20;;;;;;5016233;28;20056;-82
2021/09/06 06:51:06;;;;;;;17.98;10.23;;;435.60;2355.20;;;;;;5016619;28;20030;-81
2021/09/06 06:53:31;;;;;;;18.25;10.45;;;435.70;2355.20;;;;;;5015252;28;20025;-81
2021/09/06 06:55:57;;;;;;;18.50;8.45;;;435.90;2355.20;;;;;;5015422;28;20069;-79
2021/09/06 06:58:24;;;;;;;15.52;7.72;;;436.00;2355.20;;;;;;5016542;28;20033;-81
2021/09/06 07:00:50;;;;;;;15.75;9.38;;;460.90;2380.80;;;;;;5015587;28;20359;-78
2021/09/06 07:03:16;;;;;;;15.95;11.10;;;461.10;2380.80;;;;;;5016272;28;20397;-79
2021/09/06 07:05:42;;;;;;;32.58;11.13;;;461.30;2380.80;;;;;;5015203;28;20034;-78
2021/09/06 07:08:08;;;;;;;20.40;8.00;;;461.50;2380.80;;;;;;5015567;28;20026;-78
2021/09/06 07:10:33;;;;;;;14.23;7.43;;;461.70;2380.80;;;;;;5015292;28;20032;-78
2021/09/06 07:12:59;;;;;;;12.70;8.48;;;486.40;2380.80;;;;;;5016146;28;20508;-78
2021/09/06 07:15:31;;;;;;;14.25;8.10;;;486.50;2380.80;;;;;;5015051;28;20065;-78
2021/09/06 07:17:57;;;;;;;12.60;8.60;;;486.70;2380.80;;;;;;5015022;28;20026;-77
2021/09/06 07:20:23;;;;;;;11.07;7.30;;;486.80;2380.80;;;;;;5013366;28;20041;-78
2021/09/06 07:22:49;;;;;;;12.25;8.70;;;486.90;2380.80;;;;;;5015914;28;20030;-80
2021/09/06 07:25:15;;;;;;;16.02;9.93;;;487.00;2380.80;;;;;;5015075;28;20173;-80
2021/09/06 07:27:40;;;;;;;13.85;8.73;;;487.20;2380.80;;;;;;5016232;28;20033;-77
2021/09/06 07:30:07;;;;;;;12.80;7.10;;;487.20;2380.80;;;;;;5016206;28;20050;-78
2021/09/06 07:32:33;;;;;;;15.88;9.40;;;487.30;2380.80;;;;;;5015360;28;20429;-76
2021/09/06 07:34:58;;;;;;;18.70;8.73;;;487.30;2380.80;;;;;;5014786;28;20096;-78
2021/09/06 07:37:24;;;;;;;16.13;8.18;;;512.00;2380.80;;;;;;5014873;28;20065;-78
2021/09/06 07:39:50;;;;;;;16.58;8.27;;;512.20;2380.80;;;;;;5014605;28;20034;-78
2021/09/06 07:42:16;;;;;;;15.23;9.20;;;512.30;2380.80;;;;;;5016343;28;20080;-79
2021/09/06 07:44:42;;;;;;;13.02;7.82;;;512.40;2380.80;;;;;;5014663;28;20363;-76
2021/09/06 07:47:08;;;;;;;11.70;7.57;;;512.30;2380.80;;;;;;5014756;28;20030;-77
2021/09/06 07:49:34;;;;;;;14.50;7.85;;;512.60;2380.80;;;;;;5014494;28;20025;-76
2021/09/06 07:52:00;;;;;;;12.68;8.30;;;512.60;2380.80;;;;;;5014628;28;20033;-76
2021/09/06 07:54:26;;;;;;;9.88;7.32;;;512.70;2380.80;;;;;;5013857;28;20057;-79
2021/09/06 07:56:54;;;;;;;11.50;8.15;;;512.80;2380.80;;;;;;5017651;28;20041;-77
2021/09/06 07:59:21;;;;;;;10.38;7.68;;;512.90;2380.80;;;;;;5015659;28;20454;-77
2021/09/06 08:01:47;;;;;;;12.90;7.72;;;537.60;2406.40;;;;;;5022507;28;20026;-76
2021/09/06 08:04:13;;;;;;;13.30;9.10;;;537.70;2406.40;;;;;;5022200;28;20401;-75
2021/09/06 08:06:40;;;;;;;18.65;9.10;;;537.90;2406.40;;;;;;5020529;28;20030;-78
2021/09/06 08:09:06;;;;;;;14.32;7.05;;;538.10;2406.40;;;;;;5015881;28;20036;-77
2021/09/06 08:11:32;;;;;;;11.77;7.82;;;538.10;2406.40;;;;;;5022073;28;20030;-78
2021/09/06 08:13:59;;;;;;;13.55;7.90;;;538.10;2406.40;;;;;;5022669;28;20048;-75
2021/09/06 08:16:25;;;;;;;12.18;7.85;;;538.20;2406.40;;;;;;5023799;28;20034;-75
2021/09/06 08:18:51;;;;;;;9.45;7.15;;;538.30;2406.40;;;;;;5022830;28;20114;-74
2021/09/06 08:21:17;;;;;;;16.13;8.30;;;538.50;2406.40;;;;;;5024607;28;20026;-75
2021/09/06 08:23:44;;;;;;;11.35;7.25;;;563.20;2432.00;;;;;;5023942;28;20033;-75
2021/09/06 08:26:10;;;;;;;10.48;7.07;;;563.40;2432.00;;;;;;5020527;28;20033;-77
2021/09/06 08:28:36;;;;;;;12.15;7.10;;;563.30;2432.00;;;;;;5013495;28;20120;-77
2021/09/06 08:31:02;;;;;;;10.52;6.88;;;563.50;2432.00;;;;;;5013426;28;20057;-77
2021/09/06 08:33:28;;;;;;;10.32;8.20;;;563.60;2432.00;;;;;;5014255;28;20032;-79
2021/09/06 08:35:53;;;;;;;12.30;7.80;;;563.60;2432.00;;;;;;5014591;28;20115;-78
2021/09/06 08:38:19;;;;;;;14.15;7.18;;;563.70;2432.00;;;;;;5013673;28;20033;-80
2021/09/06 08:40:46;;;;;;;10.13;7.03;;;563.90;2432.00;;;;;;5013772;28;20440;-78
2021/09/06 08:43:12;;;;;;;11.02;7.65;;;563.90;2432.00;;;;;;5015109;28;20025;-78
2021/09/06 08:45:38;;;;;;;13.48;8.13;;;564.00;2432.00;;;;;;5013411;28;20402;-76
2021/09/06 08:48:05;;;;;;;17.00;8.00;;;564.10;2432.00;;;;;;5013361;28;20026;-77
2021/09/06 08:50:33;;;;;;;15.52;8.93;;;588.80;2432.00;;;;;;5014849;28;20025;-78
2021/09/06 08:52:59;;;;;;;14.45;8.70;;;588.80;2406.40;;;;;;5013379;28;20103;-78
2021/09/06 08:55:25;;;;;;;10.18;7.68;;;588.90;2380.80;;;;;;5013386;28;20030;-78
2021/09/06 08:57:51;;;;;;;14.23;7.07;;;588.90;2380.80;;;;;;5013525;28;20129;-77
2021/09/06 09:00:35;;;;;;;14.15;6.43;;;588.90;2380.80;;;;;;5013077;28;20431;-78
2021/09/06 09:03:01;;;;;;;13.88;6.78;;;589.00;2355.20;;;;;;5013323;28;20036;-78
2021/09/06 09:05:27;;;;;;;10.13;7.53;;;589.20;2355.20;;;;;;5014453;28;20034;-79
2021/09/06 09:07:57;;;;;;;10.20;7.28;;;588.90;2329.60;;;;;;5012994;28;20456;-78
2021/09/06 09:10:37;;;;;;;12.93;6.75;;;589.20;2329.60;;;;;;5013193;28;20025;-78
2021/09/06 09:13:08;;;;;;;14.13;7.25;;;589.20;2304.00;;;;;;5013207;28;20054;-79
2021/09/06 09:15:36;;;;;;;13.32;6.88;;;589.40;2304.00;;;;;;5013887;28;20116;-79
2021/09/06 09:18:02;;;;;;;7.13;6.07;;;589.40;2304.00;;;;;;5012857;28;20060;-78
2021/09/06 09:20:42;;;;;;;13.65;6.82;;;614.50;2278.40;;;;;;5012981;28;20032;-78
2021/09/06 09:23:09;;;;;;;12.38;7.93;;;589.60;2278.40;;;;;;5012574;28;20030;-79
2021/09/06 09:25:36;;;;;;;10.07;5.93;;;589.60;2252.80;;;;;;5013955;28;20026;-78
2021/09/06 09:28:03;;;;;;;11.00;6.40;;;589.60;2252.80;;;;;;5013085;28;20125;-78
2021/09/06 09:30:32;;;;;;;9.73;5.47;;;589.60;2252.80;;;;;;5016622;28;20068;-79
2021/09/06 09:33:11;;;;;;;14.80;6.35;;;589.70;2252.80;;;;;;5017619;28;20406;-78
2021/09/06 09:35:38;;;;;;;8.20;6.60;;;614.40;2227.20;;;;;;5012799;28;20034;-78
2021/09/06 09:38:09;;;;;;;10.75;6.45;;;614.50;2201.60;;;;;;5014747;28;20188;-80
2021/09/06 09:40:45;;;;;;;12.67;7.37;;;614.70;2176.00;;;;;;5012984;28;20389;-77
2021/09/06 09:43:11;;;;;;;12.50;7.30;;;614.80;2176.00;;;;;;5014168;28;20104;-78
2021/09/06 09:45:38;;;;;;;11.32;7.00;;;614.80;2150.40;;;;;;5016561;28;20486;-77
2021/09/06 09:48:05;;;;;;;10.80;7.00;;;614.80;2150.40;;;;;;5017203;28;20037;-79
2021/09/06 09:50:34;;;;;;;10.57;6.90;;;615.00;2124.80;;;;;;5017886;28;20022;-77
2021/09/06 09:53:00;;;;;;;13.43;7.22;;;615.10;2099.20;;;;;;5017803;28;20053;-78
2021/09/06 09:55:33;;;;;;;12.45;8.40;;;615.10;2099.20;;;;;;5016439;28;20030;-77
2021/09/06 09:58:00;;;;;;;9.57;7.07;;;615.20;2099.20;;;;;;5019339;28;20405;-78
2021/09/06 10:00:26;;;;;;;9.40;6.20;;;640.00;2073.60;;;;;;5016439;28;20059;-79
2021/09/06 10:03:00;;;;;;;9.38;6.15;;;640.00;2073.60;;;;;;5018024;28;20080;-79
2021/09/06 10:05:35;;;;;;;8.27;5.78;;;640.10;2048.00;;;;;;5017248;28;20026;-78
2021/09/06 10:08:07;;;;;;;9.18;6.10;;;640.20;2048.00;;;;;;5016354;28;20025;-75
2021/09/06 10:10:37;;;;;;;;;;;640.20;2048.00;;;;;;5017293;28;20554;-76
2021/09/06 10:13:04;;;;;;;9.65;5.47;;;640.40;2022.40;;;;;;5016659;28;20380;-78
2021/09/06 10:15:30;;;;;;;9.00;6.50;;;640.60;1996.80;;;;;;5016265;28;20037;-80
2021/09/06 10:17:55;;;;;;;11.23;7.13;;;640.70;1996.80;;;;;;5016804;28;20035;-78
2021/09/06 10:20:26;;;;;;;9.88;5.72;;;640.70;1996.80;;;;;;5016418;28;20026;-77
2021/09/06 10:23:12;;;;;;;10.30;6.20;;;665.60;1971.20;;;;;;5016013;28;20363;-78
2021/09/06 10:25:42;;;;;;;10.60;5.93;;;665.70;1971.20;;;;;;5014330;28;20470;-77
2021/09/06 10:28:12;;;;;;;11.27;6.50;;;665.90;1945.60;;;;;;5016323;28;20030;-79
2021/09/06 10:30:50;;;;;;;8.52;5.20;;;666.10;1920.00;;;;;;5015267;28;20048;-78
2021/09/06 10:33:36;;;;;;;10.38;5.50;;;666.20;1894.40;;;;;;5015159;28;20025;-79
2021/09/06 10:36:15;;;;;;;10.88;7.47;;;666.50;1894.40;;;;;;5016069;28;20433;-77
2021/09/06 10:38:45;;;;;;;13.27;6.65;;;691.20;1868.80;;;;;;5016584;28;20381;-77
2021/09/06 10:41:19;;;;;;;13.68;6.95;;;691.30;1868.80;;;;;;5016513;28;20022;-77
2021/09/06 10:43:51;;;;;;;10.38;6.45;;;691.40;1843.20;;;;;;5016112;28;20022;-78
2021/09/06 10:46:20;;;;;;;10.73;5.95;;;691.70;1817.60;;;;;;5015950;28;20121;-79
2021/09/06 10:48:46;;;;;;;12.95;5.88;;;692.10;1766.40;;;;;;5015893;28;20064;-78
2021/09/06 10:51:12;;;;;;;10.35;5.70;;;692.10;1766.40;;;;;;5016550;28;20378;-79
2021/09/06 10:53:38;;;;;;;8.60;5.45;;;716.90;1792.00;;;;;;5016435;28;20492;-79
2021/09/06 10:56:07;;;;;;;13.27;6.15;;;717.00;1792.00;;;;;;5014194;28;20030;-79
2021/09/06 10:58:33;;;;;;;7.47;5.85;;;717.10;1766.40;;;;;;5016206;28;20037;-79
2021/09/06 11:01:01;;;;;;;9.80;7.05;;;717.30;1766.40;;;;;;5015147;28;20343;-81
2021/09/06 11:03:35;;;;;;;13.63;9.05;;;717.60;1740.80;;;;;;5015752;28;20026;-77
2021/09/06 11:06:01;;;;;;;10.75;7.32;;;742.40;1740.80;;;;;;5016720;28;20061;-79
2021/09/06 11:08:29;;;;;;;9.38;6.30;;;742.50;1715.20;;;;;;5014798;28;20037;-80
2021/09/06 11:10:58;;;;;;;8.27;5.93;;;742.60;1689.60;;;;;;5015379;28;20030;-79
2021/09/06 11:13:38;;;;;;;9.35;6.97;;;742.60;1689.60;;;;;;5015013;28;20463;-80
2021/09/06 11:16:06;;;;;;;10.60;6.47;;;742.80;1664.00;;;;;;5015144;28;20041;-82
2021/09/06 11:18:34;;;;;;;13.30;6.68;;;742.90;1664.00;;;;;;5015061;28;20034;-80
2021/09/06 11:21:00;;;;;;;9.20;6.90;;;742.90;1638.40;;;;;;5015978;28;20028;-78
2021/09/06 11:23:35;;;;;;;8.25;6.30;;;743.10;1638.40;;;;;;5014956;28;20065;-79
2021/09/06 11:26:01;;;;;;;6.90;5.38;;;743.20;1612.80;;;;;;5016108;28;20030;-80
2021/09/06 11:28:28;;;;;;;10.73;6.68;;;743.30;1612.80;;;;;;5015672;28;20053;-80
2021/09/06 11:30:54;;;;;;;14.73;8.18;;;768.10;1612.80;;;;;;5015465;28;20061;-80
2021/09/06 11:33:20;;;;;;;9.10;6.82;;;768.20;1612.80;;;;;;5013495;28;20088;-80
2021/09/06 11:35:48;;;;;;;12.27;7.88;;;768.40;1561.60;;;;;;5015163;28;20038;-82
2021/09/06 11:38:15;;;;;;;10.75;8.02;;;743.10;1612.80;;;;;;5016635;28;20032;-79
2021/09/06 11:40:42;;;;;;;10.80;8.38;;;742.80;1612.80;;;;;;5016319;28;20034;-79
2021/09/06 11:43:09;;;;;;;11.65;6.78;;;742.80;1638.40;;;;;;5015265;28;20030;-78
2021/09/06 11:45:35;;;;;;;9.15;7.05;;;743.00;1638.40;;;;;;5014941;28;20061;-78
2021/09/06 11:48:08;;;;;;;9.98;6.05;;;768.10;1612.80;;;;;;5015249;28;20087;-78
2021/09/06 11:50:40;;;;;;;11.52;5.68;;;743.00;1638.40;;;;;;5015026;28;20026;-80
2021/09/06 11:53:09;;;;;;;8.95;5.60;;;743.30;1612.80;;;;;;5015131;28;20386;-79
2021/09/06 11:55:35;;;;;;;9.48;5.78;;;742.90;1638.40;;;;;;5015568;28;20041;-81
2021/09/06 11:58:12;;;;;;;7.47;5.38;;;742.60;1638.40;;;;;;5015031;28;20101;-81
2021/09/06 12:00:42;;;;;;;7.40;5.03;;;742.40;1638.40;;;;;;5013919;28;20400;-80
2021/09/06 12:03:09;;;;;;;7.70;6.15;;;743.00;1638.40;;;;;;5014447;28;20029;-81
2021/09/06 12:05:41;;;;;;;9.27;5.70;;;768.10;1612.80;;;;;;5013784;28;20132;-81
2021/09/06 12:08:15;;;;;;;7.50;5.63;;;768.50;1587.20;;;;;;5014144;28;20473;-81
2021/09/06 12:10:46;;;;;;;10.13;5.82;;;768.30;1561.60;;;;;;5016311;28;20022;-80